Time;durP1;ratioP1;P1;durP2;ratioP2;P2;SDS_P1;SDS_P2;PMS_P1;PMS_P2;Temp;Humidity;BMP_temperature;BMP_pressure;BME280_temperature;BME280_humidity;BME280_pressure;Samples;Min_cycle;Max_cycle;Signal;HPM_P1;HPM_P2
2021/04/23 00:02:23;;;;;;;;;;;;;;;18.48;68.35;101324.94;4800505;29;1796;-69
2021/04/23 00:04:50;;;;;;;;;;;;;;;18.46;68.40;101324.16;4801847;29;1325;-70
2021/04/23 00:07:16;;;;;;;;;;;;;;;18.46;68.50;101321.50;4801981;29;1044;-68
2021/04/23 00:09:42;;;;;;;;;;;;;;;18.46;68.49;101318.88;4800412;29;1306;-69
2021/04/23 00:12:11;;;;;;;;;;;;;;;18.44;68.51;101311.03;4800286;29;1276;-69
2021/04/23 00:14:41;;;;;;;;;;;;;;;18.45;68.51;101307.44;4801690;29;1974;-70
2021/04/23 00:17:08;;;;;;;;;;;;;;;18.45;68.62;101310.09;4800351;29;1184;-70
2021/04/23 00:19:34;;;;;;;;;;;;;;;18.45;68.41;101304.00;4801624;29;1322;-68
2021/04/23 00:22:01;;;;;;;;;;;;;;;18.45;68.41;101311.91;4801637;29;1123;-70
2021/04/23 00:24:27;;;;;;;;;;;;;;;18.43;68.45;101309.31;4800153;29;1271;-70
2021/04/23 00:26:54;;;;;;;;;;;;;;;18.44;68.39;101302.28;4801323;29;1086;-70
2021/04/23 00:29:20;;;;;;;;;;;;;;;18.43;68.36;101298.78;4801373;29;1246;-70
2021/04/23 00:34:33;;;;;;;;;;;;;;;18.43;68.45;101293.50;4804938;29;1907;-69
2021/04/23 00:36:59;;;;;;;;;;;;;;;18.42;68.28;101288.31;4803555;29;1431;-69
2021/04/23 00:39:25;;;;;;;;;;;;;;;18.41;68.33;101281.31;4803541;29;1314;-69
2021/04/23 00:41:51;;;;;;;;;;;;;;;18.41;68.64;101281.31;4804898;29;1140;-69
2021/04/23 00:44:18;;;;;;;;;;;;;;;18.42;68.36;101280.41;4803517;29;1314;-69
2021/04/23 00:46:44;;;;;;;;;;;;;;;18.41;68.28;101283.94;4825957;29;1396;-69
2021/04/23 00:49:11;;;;;;;;;;;;;;;18.43;68.38;101282.09;4839536;29;1439;-69
2021/04/23 00:51:39;;;;;;;;;;;;;;;18.41;68.25;101287.44;4841078;29;1152;-70
2021/04/23 00:54:06;;;;;;;;;;;;;;;18.41;68.21;101279.53;4839483;29;1907;-70
2021/04/23 00:56:33;;;;;;;;;;;;;;;18.40;68.40;101279.59;4840985;29;1162;-69
2021/04/23 00:59:00;;;;;;;;;;;;;;;18.39;68.52;101278.72;4841279;29;769;-70
2021/04/23 01:01:34;;;;;;;;;;;;;;;18.39;68.44;101275.25;4824439;29;1225;-70
2021/04/23 01:04:01;;;;;;;;;;;;;;;18.35;68.31;101268.41;4839546;29;1486;-70
2021/04/23 01:06:29;;;;;;;;;;;;;;;18.38;68.45;101266.50;4840734;29;1230;-70
2021/04/23 01:08:56;;;;;;;;;;;;;;;18.39;68.45;101268.19;4839606;29;793;-70
2021/04/23 01:11:24;;;;;;;;;;;;;;;18.39;68.40;101269.97;4838819;29;1230;-70
2021/04/23 01:13:50;;;;;;;;;;;;;;;18.39;68.40;101275.25;4840984;29;1982;-70
2021/04/23 01:16:18;;;;;;;;;;;;;;;18.39;68.23;101280.53;4839380;29;1302;-70
2021/04/23 01:18:44;;;;;;;;;;;;;;;18.37;68.38;101275.31;4840736;29;1144;-70
2021/04/23 01:21:17;;;;;;;;;;;;;;;18.36;68.39;101280.69;4840618;29;1220;-70
2021/04/23 01:23:44;;;;;;;;;;;;;;;18.38;68.28;101278.81;4840489;29;847;-70
2021/04/23 01:26:12;;;;;;;;;;;;;;;18.36;68.27;101270.97;4840329;29;1235;-70
2021/04/23 01:28:38;;;;;;;;;;;;;;;18.35;68.39;101269.28;4840577;29;1212;-70
2021/04/23 01:31:06;;;;;;;;;;;;;;;18.35;68.39;101276.31;4840340;29;1227;-70
2021/04/23 01:33:34;;;;;;;;;;;;;;;18.36;68.30;101276.22;4839083;29;823;-70
2021/04/23 01:36:00;;;;;;;;;;;;;;;18.36;68.41;101278.03;4840178;29;1986;-70
2021/04/23 01:38:26;;;;;;;;;;;;;;;18.35;68.40;101271.03;4840294;29;800;-70
2021/04/23 01:40:53;;;;;;;;;;;;;;;18.35;68.49;101278.97;4839756;29;1437;-70
2021/04/23 01:43:19;;;;;;;;;;;;;;;18.34;68.32;101277.25;4840710;29;748;-69
2021/04/23 01:45:46;;;;;;;;;;;;;;;18.34;68.46;101274.59;4839990;29;1223;-70
2021/04/23 01:48:13;;;;;;;;;;;;;;;18.33;68.40;101271.09;4840466;29;1002;-70
2021/04/23 01:50:40;;;;;;;;;;;;;;;18.30;68.48;101280.97;4839988;29;1294;-69
2021/04/23 01:53:06;;;;;;;;;;;;;;;18.31;68.35;101270.34;4838595;29;1317;-68
2021/04/23 01:55:33;;;;;;;;;;;;;;;18.30;68.29;101276.53;4837824;29;1980;-70
2021/04/23 01:57:59;;;;;;;;;;;;;;;18.30;68.42;101271.25;4840331;29;1125;-70
2021/04/23 02:00:27;;;;;;;;;;;;;;;18.31;68.35;101272.09;4839708;29;1218;-70
2021/04/23 02:02:56;;;;;;;;;;;;;;;18.33;68.34;101270.28;4838734;29;1179;-70
2021/04/23 02:05:23;;;;;;;;;;;;;;;18.31;68.26;101280.03;4839584;29;1267;-69
2021/04/23 02:07:51;;;;;;;;;;;;;;;18.31;68.40;101269.47;4838450;29;1590;-69
2021/04/23 02:10:19;;;;;;;;;;;;;;;18.32;68.08;101273.81;4838149;29;1274;-69
2021/04/23 02:12:47;;;;;;;;;;;;;;;18.31;68.35;101265.06;4839963;29;1156;-70
2021/04/23 02:15:14;;;;;;;;;;;;;;;18.31;68.36;101266.84;4838108;29;1907;-69
2021/04/23 02:17:41;;;;;;;;;;;;;;;18.30;68.30;101259.88;4837984;29;1198;-70
2021/04/23 02:20:16;;;;;;;;;;;;;;;18.28;68.47;101270.47;4839475;29;1239;-69
2021/04/23 02:22:43;;;;;;;;;;;;;;;18.26;68.29;101264.44;4823084;29;1316;-69
2021/04/23 02:25:11;;;;;;;;;;;;;;;18.29;68.35;101279.25;4838025;29;1264;-69
2021/04/23 02:27:37;;;;;;;;;;;;;;;18.28;68.71;101266.97;4839384;29;1047;-69
2021/04/23 02:30:09;;;;;;;;;;;;;;;18.28;68.44;101277.53;4837718;29;1305;-69
2021/04/23 02:32:35;;;;;;;;;;;;;;;18.28;68.33;101272.25;4837975;29;1437;-69
2021/04/23 02:35:04;;;;;;;;;;;;;;;18.30;68.19;101287.06;4837805;29;1970;-69
2021/04/23 02:37:30;;;;;;;;;;;;;;;18.28;68.38;101281.03;4838084;29;934;-69
2021/04/23 02:39:57;;;;;;;;;;;;;;;18.27;68.24;101281.13;4837704;29;1266;-69
2021/04/23 02:42:23;;;;;;;;;;;;;;;18.26;68.24;101280.25;4822676;29;1318;-69
2021/04/23 02:44:49;;;;;;;;;;;;;;;18.27;68.17;101281.13;4822702;29;1324;-70
2021/04/23 02:47:15;;;;;;;;;;;;;;;18.28;68.36;101274.88;4839179;29;1277;-70
2021/04/23 02:49:42;;;;;;;;;;;;;;;18.25;68.22;101275.88;4837558;29;1227;-70
2021/04/23 02:52:08;;;;;;;;;;;;;;;18.26;68.24;101263.56;4839314;29;1051;-70
2021/04/23 02:54:34;;;;;;;;;;;;;;;18.26;68.20;101274.13;4836929;29;1972;-70
2021/04/23 02:57:01;;;;;;;;;;;;;;;18.26;68.12;101263.56;4838717;29;1354;-70
2021/04/23 02:59:27;;;;;;;;;;;;;;;18.25;68.18;101267.13;4838579;29;1338;-70
2021/04/23 03:01:55;;;;;;;;;;;;;;;18.26;68.15;101258.28;4838455;29;1129;-70
2021/04/23 03:04:22;;;;;;;;;;;;;;;18.25;68.17;101256.56;4837402;29;1242;-69
2021/04/23 03:06:48;;;;;;;;;;;;;;;18.25;68.22;101259.22;4838977;29;958;-70
2021/04/23 03:09:15;;;;;;;;;;;;;;;18.27;68.24;101254.75;4838910;29;1420;-70
2021/04/23 03:11:42;;;;;;;;;;;;;;;18.26;68.21;101258.28;4838938;29;1148;-70
2021/04/23 03:14:08;;;;;;;;;;;;;;;18.20;68.23;101256.81;4837081;29;1912;-70
2021/04/23 03:16:36;;;;;;;;;;;;;;;18.24;68.18;101262.78;4838625;29;1279;-69
2021/04/23 03:19:08;;;;;;;;;;;;;;;18.24;68.08;101255.72;4837463;29;772;-69
2021/04/23 03:21:34;;;;;;;;;;;;;;;18.25;68.14;101256.56;4838710;29;1276;-69
2021/04/23 03:24:01;;;;;;;;;;;;;;;18.23;68.16;101254.03;4838305;29;820;-68
2021/04/23 03:26:27;;;;;;;;;;;;;;;18.22;68.18;101252.31;4838762;29;1222;-69
2021/04/23 03:28:53;;;;;;;;;;;;;;;18.22;68.34;101254.94;4838573;29;1157;-69
2021/04/23 03:31:21;;;;;;;;;;;;;;;18.21;68.12;101249.75;4836923;29;1419;-69
2021/04/23 03:33:47;;;;;;;;;;;;;;;18.23;68.22;101248.75;4836844;29;1632;-69
2021/04/23 03:36:14;;;;;;;;;;;;;;;18.23;68.24;101253.16;4838277;29;1913;-69
2021/04/23 03:38:43;;;;;;;;;;;;;;;18.22;68.07;101239.13;4836981;29;859;-69
2021/04/23 03:41:12;;;;;;;;;;;;;;;18.21;68.28;101239.19;4838006;29;1376;-69
2021/04/23 03:43:39;;;;;;;;;;;;;;;18.20;68.28;101245.41;4838462;29;1210;-69
2021/04/23 03:46:06;;;;;;;;;;;;;;;18.19;68.10;101246.31;4836636;29;1293;-69
2021/04/23 03:48:33;;;;;;;;;;;;;;;18.20;68.12;101253.31;4837931;29;1106;-70
2021/04/23 03:51:01;;;;;;;;;;;;;;;18.19;68.30;101248.94;4838262;29;1241;-70
2021/04/23 03:53:27;;;;;;;;;;;;;;;18.19;68.11;101255.09;4838586;29;776;-70
2021/04/23 03:55:54;;;;;;;;;;;;;;;18.19;68.08;101246.31;4838058;29;1920;-70
2021/04/23 03:58:21;;;;;;;;;;;;;;;18.21;67.98;101247.13;4836853;29;1440;-69
2021/04/23 04:00:52;;;;;;;;;;;;;;;18.19;68.03;101248.94;4836652;29;1322;-69
2021/04/23 04:03:19;;;;;;;;;;;;;;;18.19;68.12;101249.81;4837095;29;757;-69
2021/04/23 04:05:47;;;;;;;;;;;;;;;18.19;68.00;101246.31;4841131;29;1350;-69
2021/04/23 04:08:13;;;;;;;;;;;;;;;18.20;68.04;101248.88;4842501;29;1270;-70
2021/04/23 04:10:40;;;;;;;;;;;;;;;18.18;68.06;101247.25;4841438;29;1273;-68
2021/04/23 04:13:07;;;;;;;;;;;;;;;18.18;68.02;101249.91;4840951;29;1269;-69
2021/04/23 04:15:34;;;;;;;;;;;;;;;18.18;68.05;101252.53;4841859;29;1916;-69
2021/04/23 04:18:00;;;;;;;;;;;;;;;18.19;68.15;101259.50;4840589;29;1062;-69
2021/04/23 04:20:27;;;;;;;;;;;;;;;18.19;67.89;101259.50;4841585;29;1213;-69
2021/04/23 04:22:54;;;;;;;;;;;;;;;18.19;67.91;101262.13;4841866;29;1149;-68
2021/04/23 04:25:26;;;;;;;;;;;;;;;18.18;67.87;101265.72;4839961;29;1516;-68
2021/04/23 04:27:54;;;;;;;;;;;;;;;18.17;68.08;101258.72;4841465;29;922;-68
2021/04/23 04:30:20;;;;;;;;;;;;;;;18.17;68.04;101266.63;4841463;29;1349;-69
2021/04/23 04:32:46;;;;;;;;;;;;;;;18.13;67.88;101257.13;4841871;29;922;-69
2021/04/23 04:35:13;;;;;;;;;;;;;;;18.16;67.97;101268.41;4839744;29;1911;-69
2021/04/23 04:37:39;;;;;;;;;;;;;;;18.17;67.92;101264.00;4841811;29;1086;-70
2021/04/23 04:40:07;;;;;;;;;;;;;;;18.14;67.89;101275.53;4839843;29;1441;-69
2021/04/23 04:42:33;;;;;;;;;;;;;;;18.15;67.73;101282.50;4841083;29;963;-69
2021/04/23 04:45:02;;;;;;;;;;;;;;;18.15;67.57;101276.41;4841090;29;1330;-69
2021/04/23 04:47:29;;;;;;;;;;;;;;;18.17;67.58;101274.53;4841522;29;1596;-69
2021/04/23 04:49:56;;;;;;;;;;;;;;;18.15;67.64;101286.94;4839745;29;1211;-69
2021/04/23 04:52:22;;;;;;;;;;;;;;;18.15;67.48;101286.94;4841253;29;1064;-69
2021/04/23 04:54:49;;;;;;;;;;;;;;;18.16;68.07;101292.13;4838673;29;1903;-68
2021/04/23 04:57:15;;;;;;;;;;;;;;;18.09;67.84;101288.06;4824327;29;1131;-69
2021/04/23 04:59:46;;;;;;;;;;;;;;;18.13;67.94;101294.06;4839484;29;1270;-69
2021/04/23 05:02:13;;;;;;;;;;;;;;;18.12;67.88;101293.19;4841067;29;1138;-68
2021/04/23 05:04:39;;;;;;;;;;;;;;;18.13;67.84;101299.31;4841109;29;1330;-69
2021/04/23 05:07:06;;;;;;;;;;;;;;;18.12;67.75;101300.28;4839590;29;1144;-69
2021/04/23 05:09:33;;;;;;;;;;;;;;;18.12;67.72;101309.00;4839504;29;1191;-68
2021/04/23 05:11:59;;;;;;;;;;;;;;;18.12;67.64;101316.09;4839017;29;1345;-68
2021/04/23 05:14:26;;;;;;;;;;;;;;;18.12;67.73;101321.38;4840256;29;1915;-68
2021/04/23 05:16:52;;;;;;;;;;;;;;;18.12;67.59;101321.38;4838097;29;1068;-68
2021/04/23 05:19:19;;;;;;;;;;;;;;;18.12;67.69;101324.00;4838954;29;1231;-69
2021/04/23 05:21:45;;;;;;;;;;;;;;;18.13;67.64;101325.69;4838940;29;1127;-69
2021/04/23 05:24:11;;;;;;;;;;;;;;;18.11;67.50;101332.81;4838261;29;1192;-69
2021/04/23 05:26:38;;;;;;;;;;;;;;;18.11;67.62;101338.09;4839769;29;1050;-69
2021/04/23 05:29:04;;;;;;;;;;;;;;;18.14;67.90;101332.69;4840221;29;801;-70
2021/04/23 05:31:31;;;;;;;;;;;;;;;18.14;67.87;101335.31;4840543;29;1168;-70
2021/04/23 05:33:59;;;;;;;;;;;;;;;18.13;67.46;101337.09;4840760;29;1052;-68
2021/04/23 05:36:26;;;;;;;;;;;;;;;18.12;67.40;101345.94;4838561;29;1915;-68
2021/04/23 05:39:15;;;;;;;;;;;;;;;18.11;67.56;101349.50;4839361;29;1290;-68
2021/04/23 05:41:41;;;;;;;;;;;;;;;18.10;67.51;101346.94;4840128;29;1058;-68
2021/04/23 05:44:09;;;;;;;;;;;;;;;18.08;67.39;101343.50;4838825;29;810;-68
2021/04/23 05:46:35;;;;;;;;;;;;;;;18.09;67.70;101350.50;4839850;29;1398;-68
2021/04/23 05:49:02;;;;;;;;;;;;;;;18.09;67.41;101347.88;4840161;29;792;-70
2021/04/23 05:51:28;;;;;;;;;;;;;;;18.09;67.59;101351.34;4823406;29;1413;-69
2021/04/23 05:53:55;;;;;;;;;;;;;;;18.09;67.50;101350.50;4838666;29;856;-71
2021/04/23 05:56:21;;;;;;;;;;;;;;;18.08;67.38;101348.78;4838462;29;1915;-70
2021/04/23 05:58:47;;;;;;;;;;;;;;;18.10;67.42;101360.09;4840288;29;825;-71
2021/04/23 06:01:15;;;;;;;;;;;;;;;18.13;68.39;101360.84;4838144;29;1255;-69
2021/04/23 06:03:41;;;;;;;;;;;;;;;18.12;67.56;101360.91;4839582;29;809;-70
2021/04/23 06:06:08;;;;;;;;;;;;;;;18.10;67.64;101365.38;4838255;29;1580;-69
2021/04/23 06:08:35;;;;;;;;;;;;;;;18.10;67.43;101368.88;4837332;29;1082;-69
2021/04/23 06:11:01;;;;;;;;;;;;;;;18.10;67.30;101368.00;4838651;29;1310;-69
2021/04/23 06:13:29;;;;;;;;;;;;;;;18.10;67.54;101370.66;4837203;29;1281;-69
2021/04/23 06:15:55;;;;;;;;;;;;;;;18.10;67.48;101368.00;4839067;29;1927;-68
2021/04/23 06:18:21;;;;;;;;;;;;;;;18.09;67.38;101377.69;4837260;29;828;-68
2021/04/23 06:20:47;;;;;;;;;;;;;;;18.09;67.43;101376.88;4837345;29;1204;-70
2021/04/23 06:23:15;;;;;;;;;;;;;;;18.10;67.83;101381.19;4837144;29;840;-72
2021/04/23 06:25:41;;;;;;;;;;;;;;;18.08;67.42;101380.41;4837114;29;1227;-69
2021/04/23 06:28:09;;;;;;;;;;;;;;;18.14;67.14;101375.75;4836464;29;1365;-70
2021/04/23 06:30:36;;;;;;;;;;;;;;;18.15;67.38;101387.16;4838818;29;1203;-69
2021/04/23 06:33:08;;;;;;;;;;;;;;;18.09;67.20;101387.41;4837833;29;899;-69
2021/04/23 06:35:34;;;;;;;;;;;;;;;18.15;67.10;101392.41;4839003;29;1988;-68
2021/04/23 06:38:01;;;;;;;;;;;;;;;18.23;67.27;101401.69;4839484;29;1166;-70
2021/04/23 06:40:27;;;;;;;;;;;;;;;18.30;67.18;101400.47;4839188;29;1253;-73
2021/04/23 06:42:54;;;;;;;;;;;;;;;18.27;68.04;101397.97;4838927;29;1513;-71
2021/04/23 06:45:21;;;;;;;;;;;;;;;18.33;67.72;101396.88;4836019;29;1458;-72
2021/04/23 06:47:48;;;;;;;;;;;;;;;18.42;67.95;101405.19;4836686;29;1140;-68
2021/04/23 06:50:16;;;;;;;;;;;;;;;18.36;67.56;101399.38;4837782;29;1323;-71
2021/04/23 06:52:43;;;;;;;;;;;;;;;18.30;67.90;101399.66;4836669;29;1744;-70
2021/04/23 06:55:11;;;;;;;;;;;;;;;18.35;68.01;101397.66;4841111;29;1931;-72
2021/04/23 06:57:37;;;;;;;;;;;;;;;18.43;66.84;101406.06;4848082;29;1205;-70
2021/04/23 07:00:05;;;;;;;;;;;;;;;18.47;67.49;101407.66;4836741;29;1235;-69
2021/04/23 07:02:32;;;;;;;;;;;;;;;18.44;67.17;101413.06;4849147;29;1194;-74
2021/04/23 07:04:59;;;;;;;;;;;;;;;18.35;67.40;101421.38;4852109;29;1532;-75
2021/04/23 07:07:25;;;;;;;;;;;;;;;18.29;67.29;101413.75;4836235;29;1542;-73
2021/04/23 07:09:52;;;;;;;;;;;;;;;18.26;67.34;101420.03;4837765;29;1563;-73
2021/04/23 07:12:18;;;;;;;;;;;;;;;18.24;67.21;101427.13;4844254;29;1570;-73
2021/04/23 07:14:44;;;;;;;;;;;;;;;18.24;67.34;101434.19;4836057;29;1907;-74
2021/04/23 07:17:11;;;;;;;;;;;;;;;18.28;67.45;101433.13;4835583;29;1606;-74
2021/04/23 07:19:38;;;;;;;;;;;;;;;18.34;67.26;101430.22;4834804;29;1277;-71
2021/04/23 07:22:05;;;;;;;;;;;;;;;18.30;67.24;101432.13;4834694;29;1274;-72
2021/04/23 07:24:35;;;;;;;;;;;;;;;18.27;67.15;101431.44;4820307;29;1559;-75
2021/04/23 07:27:02;;;;;;;;;;;;;;;18.23;66.99;101437.75;4838862;29;1167;-75
2021/04/23 07:29:39;;;;;;;;;;;;;;;18.22;67.02;101430.75;4838876;29;1309;-74
2021/04/23 07:32:06;;;;;;;;;;;;;;;18.22;67.16;101442.16;4854578;29;937;-71
2021/04/23 07:34:35;;;;;;;;;;;;;;;18.36;67.39;101444.22;4840693;29;1988;-74
2021/04/23 07:37:01;;;;;;;;;;;;;;;18.34;66.78;101441.63;4834332;29;1122;-72
2021/04/23 07:39:29;;;;;;;;;;;;;;;18.28;66.96;101447.16;4834955;29;1222;-72
2021/04/23 07:41:56;;;;;;;;;;;;;;;18.26;67.11;101450.81;4832956;29;1239;-72
2021/04/23 07:44:23;;;;;;;;;;;;;;;18.24;67.04;101447.38;4833564;29;1252;-72
2021/04/23 07:46:49;;;;;;;;;;;;;;;18.21;67.10;101448.34;4833365;29;1491;-73
2021/04/23 07:49:17;;;;;;;;;;;;;;;18.21;67.13;101444.88;4834404;29;1246;-72
2021/04/23 07:51:45;;;;;;;;;;;;;;;18.19;66.87;101452.00;4835089;29;1221;-73
2021/04/23 07:54:12;;;;;;;;;;;;;;;18.17;66.82;101438.88;4837173;29;1237;-73
2021/04/23 07:56:40;;;;;;;;;;;;;;;18.16;66.86;101442.44;4835597;29;1931;-72
2021/04/23 07:59:06;;;;;;;;;;;;;;;18.15;66.64;101440.72;4837177;29;821;-72
2021/04/23 08:01:33;;;;;;;;;;;;;;;18.15;66.88;101439.88;4837329;29;1347;-73
2021/04/23 08:03:59;;;;;;;;;;;;;;;18.15;66.53;101439.88;4836945;29;804;-72
2021/04/23 08:06:26;;;;;;;;;;;;;;;18.14;66.32;101448.72;4836420;29;1548;-72
2021/04/23 08:08:53;;;;;;;;;;;;;;;18.11;66.35;101449.69;4836807;29;851;-72
2021/04/23 08:11:19;;;;;;;;;;;;;;;18.12;66.42;101446.13;4836976;29;1247;-72
2021/04/23 08:13:46;;;;;;;;;;;;;;;18.11;66.44;101452.34;4835615;29;1442;-72
2021/04/23 08:16:13;;;;;;;;;;;;;;;18.12;66.32;101447.94;4835619;29;1923;-72
2021/04/23 08:18:39;;;;;;;;;;;;;;;18.13;66.29;101445.22;4835579;29;830;-72
2021/04/23 08:21:07;;;;;;;;;;;;;;;18.10;66.36;101447.97;4835137;29;1323;-72
2021/04/23 08:23:34;;;;;;;;;;;;;;;18.11;65.96;101447.06;4837134;29;987;-72
2021/04/23 08:26:03;;;;;;;;;;;;;;;18.10;66.33;101447.13;4836955;29;1235;-72
2021/04/23 08:28:30;;;;;;;;;;;;;;;18.12;66.21;101450.56;4835451;29;833;-77
2021/04/23 08:30:57;;;;;;;;;;;;;;;18.11;66.11;101441.78;4836923;29;1262;-72
2021/04/23 08:33:24;;;;;;;;;;;;;;;18.09;66.09;101445.41;4820390;29;1324;-73
2021/04/23 08:35:50;;;;;;;;;;;;;;;18.10;66.32;101455.03;4835614;29;1911;-75
2021/04/23 08:38:23;;;;;;;;;;;;;;;17.90;59.91;101451.44;4834509;29;1678;-72
2021/04/23 08:40:54;;;;;;;;;;;;;;;17.90;60.85;101442.72;4819708;29;1846;-73
2021/04/23 08:43:20;;;;;;;;;;;;;;;17.94;59.18;101437.22;4816501;29;757;-72
2021/04/23 08:45:47;;;;;;;;;;;;;;;17.84;58.63;101445.59;4820213;29;1738;-72
2021/04/23 08:48:14;;;;;;;;;;;;;;;17.85;57.56;101442.03;4834056;29;812;-72
2021/04/23 08:50:41;;;;;;;;;;;;;;;17.79;57.03;101447.56;4835229;29;1227;-71
2021/04/23 08:53:08;;;;;;;;;;;;;;;17.85;58.11;101452.56;4838868;29;1207;-71
2021/04/23 08:55:34;;;;;;;;;;;;;;;17.84;55.82;101456.97;4837427;29;1904;-72
2021/04/23 08:58:10;;;;;;;;;;;;;;;17.88;56.65;101452.44;4837427;29;1299;-73
2021/04/23 09:00:37;;;;;;;;;;;;;;;17.89;56.22;101455.03;4838572;29;1213;-73
2021/04/23 09:03:03;;;;;;;;;;;;;;;17.90;56.43;101455.88;4838732;29;1294;-74
2021/04/23 09:05:31;;;;;;;;;;;;;;;17.92;55.63;101460.16;4836624;29;1568;-73
2021/04/23 09:08:03;;;;;;;;;;;;;;;17.89;55.59;101460.31;4837225;29;1011;-73
2021/04/23 09:10:30;;;;;;;;;;;;;;;17.83;54.83;101465.81;4837074;29;1374;-73
2021/04/23 09:13:04;;;;;;;;;;;;;;;17.85;54.65;101463.97;4838462;29;1737;-72
2021/04/23 09:15:30;;;;;;;;;;;;;;;17.83;53.12;101465.81;4836575;29;1980;-72
2021/04/23 09:18:05;;;;;;;;;;;;;;;17.83;52.96;101465.81;4837331;29;1073;-73
2021/04/23 09:20:32;;;;;;;;;;;;;;;17.87;54.08;101462.13;4839394;29;1275;-76
2021/04/23 09:23:06;;;;;;;;;;;;;;;17.82;52.75;101464.09;4837104;29;1312;-73
2021/04/23 09:25:39;;;;;;;;;;;;;;;17.86;53.22;101465.69;4836881;29;1449;-75
2021/04/23 09:28:06;;;;;;;;;;;;;;;17.84;53.52;101467.53;4837212;29;1302;-73
2021/04/23 09:30:32;;;;;;;;;;;;;;;17.88;53.38;101470.88;4836629;29;1202;-73
2021/04/23 09:32:58;;;;;;;;;;;;;;;17.84;52.28;101467.53;4838500;29;1567;-73
2021/04/23 09:35:25;;;;;;;;;;;;;;;17.82;53.69;101468.50;4836764;29;1974;-73
2021/04/23 09:38:10;;;;;;;;;;;;;;;17.85;52.46;101469.25;4836723;29;1304;-72
2021/04/23 09:40:36;;;;;;;;;;;;;;;17.78;52.82;101462.50;4836272;29;1469;-71
2021/04/23 09:43:04;;;;;;;;;;;;;;;17.87;53.40;101461.28;4836511;29;1195;-73
2021/04/23 09:45:33;;;;;;;;;;;;;;;17.86;53.03;101464.84;4821022;29;1730;-73
2021/04/23 09:48:00;;;;;;;;;;;;;;;17.85;52.49;101460.47;4836621;29;1147;-73
2021/04/23 09:50:38;;;;;;;;;;;;;;;17.88;53.85;101465.63;4821468;29;1239;-73
2021/04/23 09:53:06;;;;;;;;;;;;;;;17.81;52.85;101458.91;4837024;29;1297;-72
2021/04/23 09:55:33;;;;;;;;;;;;;;;17.84;53.30;101456.97;4836429;29;1907;-74
2021/04/23 09:58:04;;;;;;;;;;;;;;;17.93;55.15;101456.59;4836537;29;1521;-76
2021/04/23 10:00:32;;;;;;;;;;;;;;;17.94;53.83;101460.94;4838809;29;1392;-71
2021/04/23 10:03:00;;;;;;;;;;;;;;;17.89;53.48;101457.66;4836812;29;1384;-72
2021/04/23 10:05:35;;;;;;;;;;;;;;;17.85;53.61;101457.84;4836855;29;1568;-73
2021/04/23 10:08:04;;;;;;;;;;;;;;;17.88;53.48;101463.84;4838631;29;1261;-73
2021/04/23 10:10:31;;;;;;;;;;;;;;;17.89;53.34;101462.94;4821685;29;1258;-71
2021/04/23 10:13:02;;;;;;;;;;;;;;;17.87;53.08;101472.66;4838410;29;1241;-74
2021/04/23 10:15:29;;;;;;;;;;;;;;;17.92;53.77;101469.84;4837005;29;1912;-74
2021/04/23 10:18:03;;;;;;;;;;;;;;;17.94;53.28;101468.84;4837034;29;1296;-73
2021/04/23 10:20:31;;;;;;;;;;;;;;;17.93;52.83;101475.03;4837988;29;1262;-73
2021/04/23 10:22:58;;;;;;;;;;;;;;;17.89;53.11;101473.47;4821681;29;1257;-73
2021/04/23 10:25:25;;;;;;;;;;;;;;;17.92;54.34;101469.84;4837871;29;1243;-74
2021/04/23 10:27:53;;;;;;;;;;;;;;;17.92;53.02;101469.84;4836661;29;1241;-73
2021/04/23 10:30:24;;;;;;;;;;;;;;;17.94;53.49;101470.63;4838198;29;1235;-75
2021/04/23 10:33:09;;;;;;;;;;;;;;;17.90;53.55;101472.53;4836478;29;1404;-71
2021/04/23 10:35:36;;;;;;;;;;;;;;;17.96;53.94;101476.72;4837674;29;1931;-72
2021/04/23 10:38:06;;;;;;;;;;;;;;;17.96;54.50;101474.91;4836010;29;1555;-72
2021/04/23 10:40:33;;;;;;;;;;;;;;;18.03;53.74;101475.50;4836249;29;1241;-73
2021/04/23 10:43:08;;;;;;;;;;;;;;;18.15;53.58;101474.16;4836585;29;1148;-70
2021/04/23 10:45:43;;;;;;;;;;;;;;;18.11;52.99;101491.88;4836047;29;1552;-69
2021/04/23 10:48:12;;;;;;;;;;;;;;;18.09;52.81;101487.59;4828044;29;1622;-69
2021/04/23 10:50:46;;;;;;;;;;;;;;;18.09;54.48;101484.97;4837831;29;1365;-70
2021/04/23 10:53:17;;;;;;;;;;;;;;;18.09;53.81;101483.16;4836061;29;1255;-69
2021/04/23 10:55:48;;;;;;;;;;;;;;;18.11;54.48;101478.69;4837194;29;1986;-69
2021/04/23 10:58:35;;;;;;;;;;;;;;;18.19;56.09;101478.34;4836247;29;1403;-68
2021/04/23 11:01:03;;;;;;;;;;;;;;;18.14;55.79;101477.72;4835453;29;1253;-69
2021/04/23 11:03:31;;;;;;;;;;;;;;;18.13;55.42;101490.03;4837236;29;927;-68
2021/04/23 11:06:01;;;;;;;;;;;;;;;18.14;55.93;101496.16;4834886;29;1584;-70
2021/04/23 11:08:29;;;;;;;;;;;;;;;18.13;56.37;101499.72;4836052;29;1503;-69
2021/04/23 11:11:02;;;;;;;;;;;;;;;18.16;55.60;101487.25;4835822;29;1238;-69
2021/04/23 11:13:29;;;;;;;;;;;;;;;18.19;55.92;101486.25;4836759;29;952;-71
2021/04/23 11:16:14;;;;;;;;;;;;;;;18.21;57.01;101493.19;4835075;29;1976;-72
2021/04/23 11:18:42;;;;;;;;;;;;;;;18.19;58.04;101505.59;4835764;29;843;-71
2021/04/23 11:21:30;;;;;;;;;;;;;;;18.16;58.60;101495.16;4820274;29;1513;-72
2021/04/23 11:24:09;;;;;;;;;;;;;;;18.17;58.64;101498.66;4836726;29;899;-72
2021/04/23 11:29:28;;;;;;;;;;;;;;;18.17;59.19;101502.16;4836679;29;1214;-71
2021/04/23 11:32:06;;;;;;;;;;;;;;;18.18;59.41;101503.03;4836621;29;1114;-72
2021/04/23 11:34:36;;;;;;;;;;;;;;;18.18;59.52;101500.41;4835402;29;1300;-72
2021/04/23 11:37:04;;;;;;;;;;;;;;;18.19;59.77;101495.03;4837049;29;1984;-72
2021/04/23 11:39:31;;;;;;;;;;;;;;;18.19;59.91;101500.31;4835083;29;1330;-71
2021/04/23 11:42:10;;;;;;;;;;;;;;;18.20;59.87;101494.13;4837021;29;1050;-71
2021/04/23 11:45:04;;;;;;;;;;;;;;;18.22;60.01;101499.31;4835363;29;1321;-72
2021/04/23 11:47:58;;;;;;;;;;;;;;;18.22;60.14;101502.81;4818799;29;1212;-73
2021/04/23 11:51:04;;;;;;;;;;;;;;;18.23;60.30;101491.34;4817512;29;1671;-72
2021/04/23 11:53:34;;;;;;;;;;;;;;;18.24;60.36;101487.78;4816952;29;1381;-72
2021/04/23 11:56:14;;;;;;;;;;;;;;;18.24;60.56;101489.59;4816729;29;1920;-73
2021/04/23 11:59:05;;;;;;;;;;;;;;;18.25;60.51;101493.91;4818251;29;785;-71
2021/04/23 12:01:37;;;;;;;;;;;;;;;19.43;57.32;101491.16;4809733;29;1783;-71
2021/04/23 12:04:05;;;;;;;;;;;;;;;19.04;57.40;101502.66;4834788;29;1764;-71
2021/04/23 12:06:32;;;;;;;;;;;;;;;18.85;57.88;101491.22;4835099;29;1753;-70
2021/04/23 12:08:59;;;;;;;;;;;;;;;18.70;58.30;101502.47;4837261;29;1745;-72
2021/04/23 12:11:25;;;;;;;;;;;;;;;18.62;59.06;101490.56;4836166;29;1268;-73
2021/04/23 12:13:52;;;;;;;;;;;;;;;18.57;59.26;101488.13;4836404;29;844;-69
2021/04/23 12:16:19;;;;;;;;;;;;;;;18.54;59.81;101490.91;4836396;29;1907;-69
2021/04/23 12:18:51;;;;;;;;;;;;;;;18.52;59.92;101493.59;4836225;29;1769;-69
2021/04/23 12:21:19;;;;;;;;;;;;;;;18.59;60.57;101491.56;4835102;29;1296;-69
2021/04/23 12:23:46;;;;;;;;;;;;;;;18.64;61.13;101497.47;4836872;29;749;-67
2021/04/23 12:26:14;;;;;;;;;;;;;;;18.76;61.31;101491.63;4836257;29;1548;-71
2021/04/23 12:28:48;;;;;;;;;;;;;;;18.74;61.30;101503.19;4839293;29;1557;-68
2021/04/23 12:31:28;;;;;;;;;;;;;;;18.77;62.02;101501.28;4840208;29;1303;-66
2021/04/23 12:34:15;;;;;;;;;;;;;;;18.76;61.71;101502.19;4839773;29;1737;-69
2021/04/23 12:36:50;;;;;;;;;;;;;;;18.82;61.83;101507.19;4838811;29;1900;-71
2021/04/23 12:39:24;;;;;;;;;;;;;;;18.82;62.00;101511.63;4838547;29;1347;-71
2021/04/23 12:41:55;;;;;;;;;;;;;;;18.87;61.98;101520.22;4838397;29;1311;-70
2021/04/23 12:44:26;;;;;;;;;;;;;;;18.88;62.35;101522.75;4838986;29;1315;-73
2021/04/23 12:46:58;;;;;;;;;;;;;;;18.87;61.91;101521.06;4837907;29;1533;-71
2021/04/23 12:49:28;;;;;;;;;;;;;;;18.84;62.08;101522.97;4836799;29;1553;-69
2021/04/23 12:52:04;;;;;;;;;;;;;;;18.89;62.01;101518.34;4822090;29;1491;-69
2021/04/23 12:54:38;;;;;;;;;;;;;;;18.89;62.09;101519.22;4837563;29;1377;-67
2021/04/23 12:57:10;;;;;;;;;;;;;;;18.83;61.64;101490.44;4838902;29;1911;-69
2021/04/23 12:59:37;;;;;;;;;;;;;;;18.89;61.05;101487.53;4836997;29;1314;-69
2021/04/23 13:02:04;;;;;;;;;;;;;;;18.87;60.37;101486.75;4839206;29;1128;-70